Decoded Metar for KRPD (RICE LAKE in WI, USA) (IATA:RPD) | Meteo·Mobile Aviation Weather
aviador You're here:

KRPD Decoded Metar

RICE LAKE in WI, USA
Report Time2019-10-22 13:55:00
UTC Time2019-10-22 14:13:23
Flight Rules mvfr MVFR
Wind270° at 11 Gusting to 24 kt
W.Decomp.*RWY 31: 8.3 kt HW 7.2 kt LCW
RWY 19: 2.1 kt HW 10.8 kt RCW
Visibility9999 m
Phenomena:Drizzle
Clouds:Overcast 013 Hf
Expected CloudBase > 4,400 ft AGL from Temp-Dew spread
Ceiling1,300 ft
Temp06°C (ISA -7)
Dew Point-5°C (46% RH)
AAT-0.5°C
QNH992 hPa
Density Alt1,073 ft
Elevation1,109 ft
Report Wrong Elevation
Raw Report
KRPD 221355Z AUTO 27011G24KT 10SM DZ OVC013 06/M05 A2928 RMK AO2
T00571047=

Extra information for KRPD:More info

Metar Taf Metar & Taf Last 4 Metars F.Rules Stats Wind Profile Meteogram Temp Stats Airport Information Weather charts Add Link Nearby VenuesMetar ALERT Operation Metar Decoded Social comments

AIRNAV info for KRPD